Time;durP1;ratioP1;P1;durP2;ratioP2;P2;SDS_P1;SDS_P2;PMS_P1;PMS_P2;Temp;Humidity;BMP_temperature;BMP_pressure;BME280_temperature;BME280_humidity;BME280_pressure;Samples;Min_cycle;Max_cycle;Signal;HPM_P1;HPM_P2
2021/06/16 00:00:17;;;;;;;4.38;1.92;;;;;;;10.20;nan;102126.84;5017198;28;20387;-47
2021/06/16 00:02:43;;;;;;;7.78;2.28;;;;;;;10.16;nan;102126.47;5016087;28;20026;-48
2021/06/16 00:05:12;;;;;;;5.53;2.20;;;;;;;10.11;nan;102130.81;5002552;28;20033;-47
2021/06/16 00:07:37;;;;;;;3.22;2.10;;;;;;;10.08;nan;102132.06;5016508;28;20488;-48
2021/06/16 00:10:07;;;;;;;3.20;1.80;;;;;;;10.05;nan;102128.97;5016148;28;20117;-47
2021/06/16 00:12:34;;;;;;;5.00;2.35;;;;;;;10.04;nan;102130.81;5018034;28;20374;-47
2021/06/16 00:14:59;;;;;;;5.38;2.50;;;;;;;10.00;nan;102143.81;5015169;28;20044;-47
2021/06/16 00:17:25;;;;;;;4.35;2.40;;;;;;;9.94;nan;102131.28;5012683;28;20037;-47
2021/06/16 00:19:51;;;;;;;4.00;2.15;;;;;;;9.90;nan;102142.63;5017748;28;20540;-47
2021/06/16 00:22:16;;;;;;;7.18;2.40;;;;;;;9.85;nan;102139.72;5017423;28;20063;-47
2021/06/16 00:24:42;;;;;;;4.50;2.35;;;;;;;9.81;nan;102142.00;5013751;28;20535;-47
2021/06/16 00:27:08;;;;;;;4.40;2.35;;;;;;;9.74;nan;102143.06;5013407;28;20026;-47
2021/06/16 00:29:33;;;;;;;5.05;2.20;;;;;;;9.66;nan;102139.56;5016074;28;20052;-47
2021/06/16 00:31:59;;;;;;;6.15;1.98;;;;;;;9.64;nan;102136.25;5015661;28;20184;-47
2021/06/16 00:34:25;;;;;;;4.72;2.00;;;;;;;9.59;nan;102145.97;5014903;28;20034;-49
2021/06/16 00:36:51;;;;;;;4.35;2.58;;;;;;;9.52;nan;102139.81;5013786;28;20061;-47
2021/06/16 00:39:16;;;;;;;3.58;2.25;;;;;;;9.44;nan;102137.31;5016800;28;20808;-48
2021/06/16 00:41:44;;;;;;;4.85;2.40;;;;;;;9.37;nan;102142.69;5014637;28;20414;-47
2021/06/16 00:44:09;;;;;;;4.30;2.72;;;;;;;9.31;nan;102146.16;5021852;28;20139;-47
2021/06/16 00:46:35;;;;;;;8.07;2.85;;;;;;;9.24;nan;102140.81;5014776;28;20124;-47
2021/06/16 00:49:00;;;;;;;3.67;2.33;;;;;;;9.17;nan;102137.31;5000737;28;20088;-47
2021/06/16 00:51:26;;;;;;;4.03;2.28;;;;;;;9.16;nan;102135.69;5023741;28;20021;-47
2021/06/16 00:53:52;;;;;;;6.53;2.42;;;;;;;9.12;nan;102139.78;5017832;28;20488;-47
2021/06/16 00:56:17;;;;;;;3.97;2.65;;;;;;;9.09;nan;102142.84;5016703;28;20111;-47
2021/06/16 00:58:44;;;;;;;4.95;2.55;;;;;;;9.02;nan;102145.53;5014402;28;20519;-47
2021/06/16 01:01:18;;;;;;;4.60;2.65;;;;;;;8.96;nan;102145.50;5013577;28;20037;-47
2021/06/16 01:03:54;;;;;;;4.20;2.42;;;;;;;8.91;nan;102146.13;4996362;28;20499;-47
2021/06/16 01:06:28;;;;;;;4.38;2.28;;;;;;;8.83;nan;102150.84;5014753;28;20033;-47
2021/06/16 01:09:16;;;;;;;4.78;2.55;;;;;;;8.74;nan;102151.00;5012865;28;20029;-46
2021/06/16 01:11:57;;;;;;;2.97;2.25;;;;;;;8.71;nan;102153.28;5012015;28;20492;-47
2021/06/16 01:14:31;;;;;;;5.13;2.50;;;;;;;8.68;nan;102151.81;5014058;28;20029;-47
2021/06/16 01:17:00;;;;;;;3.95;2.45;;;;;;;8.66;nan;102151.22;5007540;28;20026;-47
2021/06/16 01:19:41;;;;;;;7.13;2.25;;;;;;;8.61;nan;102145.63;5013682;28;20022;-47
2021/06/16 01:22:16;;;;;;;4.05;2.38;;;;;;;8.59;nan;102149.53;5011766;28;20022;-47
2021/06/16 01:24:50;;;;;;;4.70;2.40;;;;;;;8.53;nan;102145.81;5010883;28;20395;-48
2021/06/16 01:27:16;;;;;;;2.72;2.10;;;;;;;8.52;nan;102152.19;5015546;28;20140;-47
2021/06/16 01:29:42;;;;;;;3.10;2.38;;;;;;;8.49;nan;102147.25;5015826;28;20029;-47
2021/06/16 01:32:10;;;;;;;6.53;2.35;;;;;;;8.47;nan;102151.97;5017563;28;20434;-47
2021/06/16 01:34:36;;;;;;;3.47;2.97;;;;;;;8.45;nan;102154.00;5013765;28;21657;-47
2021/06/16 01:37:02;;;;;;;3.70;2.55;;;;;;;8.43;nan;102145.34;5018899;28;20028;-47
2021/06/16 01:39:32;;;;;;;3.55;2.67;;;;;;;8.38;nan;102151.28;5014519;28;20029;-47
2021/06/16 01:42:00;;;;;;;5.10;2.17;;;;;;;8.37;nan;102146.16;5015768;28;20055;-47
2021/06/16 01:44:26;;;;;;;5.88;2.90;;;;;;;8.36;nan;102152.53;5015815;28;20056;-46
2021/06/16 01:46:53;;;;;;;6.85;2.92;;;;;;;8.32;nan;102145.91;5011956;28;20076;-47
2021/06/16 01:49:24;;;;;;;6.00;2.60;;;;;;;8.26;nan;102155.53;5014876;28;20033;-47
2021/06/16 01:51:51;;;;;;;6.35;2.70;;;;;;;8.21;nan;102154.47;5014633;28;20029;-47
2021/06/16 01:54:17;;;;;;;7.38;3.00;;;;;;;8.15;nan;102150.75;5013693;28;20149;-48
2021/06/16 01:56:45;;;;;;;6.65;2.35;;;;;;;8.10;nan;102140.69;5016152;28;20510;-48
2021/06/16 01:59:12;;;;;;;11.00;2.60;;;;;;;8.09;nan;102148.88;5011226;28;20950;-48
2021/06/16 02:01:38;;;;;;;8.25;2.78;;;;;;;8.05;nan;102151.09;5018511;28;20048;-46
2021/06/16 02:04:03;;;;;;;5.55;2.75;;;;;;;8.01;nan;102149.84;5013596;28;20479;-47
2021/06/16 02:06:35;;;;;;;8.15;2.38;;;;;;;7.97;nan;102145.94;5015638;28;20029;-47
2021/06/16 02:09:04;;;;;;;5.03;2.50;;;;;;;7.97;nan;102139.78;5014356;28;20032;-47
2021/06/16 02:11:31;;;;;;;3.95;2.40;;;;;;;7.92;nan;102144.88;5011897;28;20038;-48
2021/06/16 02:13:59;;;;;;;6.57;2.80;;;;;;;7.94;nan;102150.84;5010892;28;20108;-48
2021/06/16 02:16:33;;;;;;;3.33;2.63;;;;;;;7.90;nan;102150.41;5011513;28;20056;-47
2021/06/16 02:19:07;;;;;;;3.85;2.88;;;;;;;7.87;nan;102146.28;5014247;28;20213;-47
2021/06/16 02:21:33;;;;;;;2.90;2.50;;;;;;;7.83;nan;102149.53;5014537;28;20037;-48
2021/06/16 02:23:59;;;;;;;4.57;2.60;;;;;;;7.79;nan;102150.97;5011596;28;20284;-47
2021/06/16 02:26:24;;;;;;;10.02;2.95;;;;;;;7.73;nan;102151.75;5012932;28;20057;-47
2021/06/16 02:28:51;;;;;;;3.95;2.78;;;;;;;7.69;nan;102147.78;5014893;28;20046;-47
2021/06/16 02:31:16;;;;;;;4.90;2.60;;;;;;;7.67;nan;102144.50;5017227;28;20033;-47
2021/06/16 02:33:42;;;;;;;6.85;3.00;;;;;;;7.64;nan;102150.22;5011153;28;20285;-47
2021/06/16 02:36:10;;;;;;;10.75;3.70;;;;;;;7.62;nan;102152.28;5015759;28;20174;-48
2021/06/16 02:38:36;;;;;;;6.15;3.38;;;;;;;7.60;nan;102147.13;5012667;28;20072;-47
2021/06/16 02:41:08;;;;;;;6.35;2.78;;;;;;;7.56;nan;102151.22;5020509;28;20036;-47
2021/06/16 02:43:34;;;;;;;4.75;2.90;;;;;;;7.54;nan;102153.22;5017651;28;20028;-47
2021/06/16 02:46:01;;;;;;;4.18;2.80;;;;;;;7.56;nan;102149.38;5006098;28;20100;-48
2021/06/16 02:48:26;;;;;;;6.57;2.88;;;;;;;7.56;nan;102154.69;5020316;28;20021;-47
2021/06/16 02:50:55;;;;;;;3.83;2.53;;;;;;;7.60;nan;102159.66;5015506;28;20177;-46
2021/06/16 02:53:23;;;;;;;6.40;3.17;;;;;;;7.57;nan;102148.34;5020731;28;20460;-48
2021/06/16 02:55:52;;;;;;;4.97;2.83;;;;;;;7.58;nan;102155.31;5021228;28;20342;-47
2021/06/16 02:58:19;;;;;;;3.22;2.58;;;;;;;7.57;nan;102159.03;5027807;28;20047;-47
2021/06/16 03:00:47;;;;;;;8.30;2.83;;;;;;;7.57;nan;102155.53;4995923;28;20643;-47
2021/06/16 03:03:15;;;;;;;7.13;2.67;;;;;;;7.62;nan;102158.44;5019108;28;20030;-47
2021/06/16 03:05:41;;;;;;;6.07;3.35;;;;;;;7.67;nan;102158.66;5022204;28;20408;-47
2021/06/16 03:08:08;;;;;;;4.47;2.78;;;;;;;7.69;nan;102158.47;5020070;28;20021;-47
2021/06/16 03:10:35;;;;;;;4.47;2.58;;;;;;;7.74;nan;102164.88;5017683;28;20037;-48
2021/06/16 03:13:02;;;;;;;5.00;2.97;;;;;;;7.82;nan;102158.56;5021470;28;20079;-48
2021/06/16 03:15:28;;;;;;;4.88;2.75;;;;;;;7.89;nan;102160.25;5023157;28;20033;-47
2021/06/16 03:17:56;;;;;;;5.25;2.63;;;;;;;7.97;nan;102161.13;5018954;28;20399;-47
2021/06/16 03:20:24;;;;;;;3.80;2.95;;;;;;;8.05;nan;102155.63;5025613;28;20025;-46
2021/06/16 03:22:51;;;;;;;4.05;2.63;;;;;;;8.12;nan;102149.31;5019284;28;20070;-47
2021/06/16 03:25:18;;;;;;;14.07;3.38;;;;;;;8.23;nan;102155.09;5027188;28;20041;-47
2021/06/16 03:27:45;;;;;;;6.68;2.92;;;;;;;8.34;nan;102159.91;5023206;28;20392;-47
2021/06/16 03:30:11;;;;;;;5.70;3.30;;;;;;;8.44;nan;102163.06;5023431;28;20045;-47
2021/06/16 03:32:37;;;;;;;5.07;2.83;;;;;;;8.53;nan;102167.19;5019515;28;20038;-48
2021/06/16 03:35:04;;;;;;;4.15;2.85;;;;;;;8.64;nan;102163.94;5017583;28;20037;-48
2021/06/16 03:37:31;;;;;;;5.75;2.90;;;;;;;8.75;nan;102166.00;5012067;28;20021;-47
2021/06/16 03:39:58;;;;;;;7.85;3.90;;;;;;;8.89;nan;102150.03;5018471;28;20030;-47
2021/06/16 03:42:24;;;;;;;5.03;3.55;;;;;;;9.02;nan;102158.91;5023239;28;20020;-47
2021/06/16 03:44:50;;;;;;;8.18;3.67;;;;;;;9.16;nan;102167.78;5018112;28;20613;-48
2021/06/16 03:47:19;;;;;;;5.97;3.65;;;;;;;9.31;nan;102165.69;5020379;28;20029;-47
2021/06/16 03:49:47;;;;;;;6.45;3.70;;;;;;;9.48;nan;102165.28;5018917;28;20432;-48
2021/06/16 03:52:15;;;;;;;4.10;3.25;;;;;;;9.60;nan;102164.47;5018003;28;20229;-47
2021/06/16 03:54:42;;;;;;;5.20;3.20;;;;;;;9.73;nan;102169.00;5021615;28;20625;-48
2021/06/16 03:57:08;;;;;;;5.55;3.15;;;;;;;9.87;nan;102170.59;5019967;28;20040;-47
2021/06/16 03:59:36;;;;;;;8.75;3.33;;;;;;;10.00;nan;102167.09;5019508;28;20038;-47
2021/06/16 04:02:02;;;;;;;5.50;3.28;;;;;;;10.14;nan;102166.03;5017523;28;20029;-48
2021/06/16 04:04:27;;;;;;;7.03;3.15;;;;;;;10.29;nan;102176.53;5012963;28;20061;-47
2021/06/16 04:06:53;;;;;;;5.43;3.15;;;;;;;10.40;nan;102169.69;5010345;28;20061;-48
2021/06/16 04:09:20;;;;;;;6.78;3.78;;;;;;;10.54;nan;102176.63;5013412;28;20372;-46
2021/06/16 04:11:46;;;;;;;6.22;3.38;;;;;;;10.68;nan;102172.03;5015087;28;20030;-48
2021/06/16 04:14:12;;;;;;;4.80;3.33;;;;;;;10.77;nan;102173.41;4996687;28;20084;-46
2021/06/16 04:16:44;;;;;;;5.72;3.63;;;;;;;10.87;nan;102166.56;5017601;28;20065;-48
2021/06/16 04:19:10;;;;;;;8.20;3.90;;;;;;;10.97;nan;102171.47;4997273;28;20080;-46
2021/06/16 04:21:36;;;;;;;5.22;3.53;;;;;;;11.10;nan;102166.00;5014053;28;20030;-47
2021/06/16 04:24:02;;;;;;;6.53;3.78;;;;;;;11.28;nan;102167.13;5014747;28;20052;-46
2021/06/16 04:26:28;;;;;;;6.85;3.92;;;;;;;11.46;nan;102172.53;5018323;28;20423;-47
2021/06/16 04:28:53;;;;;;;5.50;3.55;;;;;;;11.64;nan;102177.97;5013151;28;20022;-48
2021/06/16 04:31:19;;;;;;;4.80;3.50;;;;;;;11.80;nan;102176.63;5017921;28;20108;-47
2021/06/16 04:33:45;;;;;;;6.15;3.72;;;;;;;11.95;nan;102178.94;5015579;28;20107;-48
2021/06/16 04:36:10;;;;;;;4.50;3.35;;;;;;;12.08;nan;102179.66;5013213;28;20033;-47
2021/06/16 04:38:36;;;;;;;4.00;3.08;;;;;;;12.20;nan;102166.25;5000404;28;20056;-47
2021/06/16 04:41:02;;;;;;;6.13;3.30;;;;;;;12.28;nan;102175.91;5017317;28;20026;-46
2021/06/16 04:43:28;;;;;;;6.80;4.00;;;;;;;12.38;nan;102170.81;5014821;28;20022;-46
2021/06/16 04:45:54;;;;;;;4.55;3.63;;;;;;;12.48;nan;102176.50;4999146;28;20027;-48
2021/06/16 04:48:20;;;;;;;6.13;3.60;;;;;;;12.57;nan;102177.84;5017718;28;20380;-46
2021/06/16 04:50:46;;;;;;;8.23;4.07;;;;;;;12.68;nan;102176.25;5018643;28;20025;-49
2021/06/16 04:53:11;;;;;;;8.68;3.33;;;;;;;12.80;nan;102174.44;5016696;28;20033;-48
2021/06/16 04:55:37;;;;;;;5.15;3.50;;;;;;;12.96;nan;102175.66;5009919;28;20037;-48
2021/06/16 04:58:03;;;;;;;6.40;3.47;;;;;;;13.16;nan;102172.66;5015325;28;20022;-49
2021/06/16 05:00:29;;;;;;;7.05;4.30;;;;;;;13.35;nan;102168.06;5014259;28;20042;-48
2021/06/16 05:02:56;;;;;;;5.25;3.42;;;;;;;13.50;nan;102169.25;5013413;28;20025;-48
2021/06/16 05:05:23;;;;;;;7.65;3.80;;;;;;;13.64;nan;102169.00;5016645;28;20072;-47
2021/06/16 05:07:49;;;;;;;7.65;3.72;;;;;;;13.79;nan;102170.19;5010367;28;20022;-47
2021/06/16 05:10:14;;;;;;;7.47;3.85;;;;;;;13.95;nan;102163.25;5011140;28;20541;-48
2021/06/16 05:12:41;;;;;;;5.05;3.65;;;;;;;14.08;nan;102171.09;5013546;28;20030;-48
2021/06/16 05:15:08;;;;;;;6.50;3.25;;;;;;;14.21;nan;102168.16;5007231;28;20022;-48
2021/06/16 05:17:33;;;;;;;5.90;3.40;;;;;;;14.37;nan;102161.22;5010769;28;20450;-48
2021/06/16 05:19:59;;;;;;;5.47;3.28;;;;;;;14.51;nan;102161.75;5011191;28;20045;-49
2021/06/16 05:22:27;;;;;;;4.47;3.28;;;;;;;14.67;nan;102160.19;5011556;28;20052;-47
2021/06/16 05:24:53;;;;;;;6.65;3.63;;;;;;;14.83;nan;102170.19;5009970;28;20050;-46
2021/06/16 05:27:19;;;;;;;3.65;2.70;;;;;;;14.93;nan;102164.19;5011131;28;20488;-47
2021/06/16 05:29:45;;;;;;;7.65;2.92;;;;;;;15.06;nan;102161.97;5013125;28;20033;-46
2021/06/16 05:32:12;;;;;;;3.95;2.67;;;;;;;15.19;nan;102166.25;5015845;28;20033;-46
2021/06/16 05:34:38;;;;;;;8.73;3.25;;;;;;;15.31;nan;102155.38;5012839;28;20412;-47
2021/06/16 05:37:07;;;;;;;5.47;2.70;;;;;;;15.34;nan;102157.59;5013091;28;20100;-46
2021/06/16 05:39:33;;;;;;;5.30;2.58;;;;;;;15.59;nan;102162.59;5010016;28;20083;-46
2021/06/16 05:41:59;;;;;;;4.05;2.53;;;;;;;15.76;nan;102157.16;5016075;28;20212;-48
2021/06/16 05:44:25;;;;;;;8.20;2.58;;;;;;;15.94;nan;102162.28;5009791;28;20118;-47
2021/06/16 05:46:50;;;;;;;7.80;2.15;;;;;;;16.04;nan;102161.63;5015202;28;20216;-47
2021/06/16 05:49:16;;;;;;;5.78;2.38;;;;;;;16.14;nan;102162.56;5011134;28;20041;-46
2021/06/16 05:51:41;;;;;;;6.32;2.38;;;;;;;16.19;nan;102172.66;5013102;28;20049;-46
2021/06/16 05:54:10;;;;;;;5.47;1.80;;;;;;;16.28;nan;102165.72;5009397;28;20049;-47
2021/06/16 05:56:37;;;;;;;8.35;2.08;;;;;;;16.37;nan;102164.22;5002955;28;20492;-49
2021/06/16 05:59:03;;;;;;;4.63;1.95;;;;;;;16.49;nan;102167.59;5010596;28;20036;-48
2021/06/16 06:01:29;;;;;;;9.00;2.03;;;;;;;16.57;nan;102167.16;5013950;28;20044;-49
2021/06/16 06:03:54;;;;;;;4.07;1.65;;;;;;;16.74;nan;102166.28;5013075;28;20049;-47
2021/06/16 06:06:20;;;;;;;5.53;1.73;;;;;;;16.89;nan;102169.16;5013195;28;20286;-46
2021/06/16 06:08:45;;;;;;;3.30;1.40;;;;;;;17.07;nan;102160.66;5010088;28;20033;-48
2021/06/16 06:11:11;;;;;;;5.28;2.00;;;;;;;17.26;nan;102179.25;5015204;28;20030;-46
2021/06/16 06:13:36;;;;;;;5.82;1.50;;;;;;;17.37;nan;102172.81;5013197;28;20022;-47
2021/06/16 06:16:02;;;;;;;3.40;1.38;;;;;;;17.50;nan;102169.69;5010883;28;20036;-46
2021/06/16 06:18:27;;;;;;;4.93;1.70;;;;;;;17.65;nan;102174.41;5011548;28;20034;-47
2021/06/16 06:20:53;;;;;;;3.95;1.65;;;;;;;17.70;nan;102172.56;5014350;28;20052;-47
2021/06/16 06:23:19;;;;;;;3.88;1.38;;;;;;;17.79;nan;102171.00;5010631;28;20148;-46
2021/06/16 06:25:44;;;;;;;4.85;1.60;;;;;;;17.83;nan;102176.72;5014862;28;20033;-47
2021/06/16 06:28:10;;;;;;;5.50;1.55;;;;;;;17.94;nan;102172.16;5008762;28;20060;-47
2021/06/16 06:30:35;;;;;;;4.93;1.55;;;;;;;18.04;nan;102174.94;5009646;28;20107;-48
2021/06/16 06:33:02;;;;;;;4.28;1.40;;;;;;;18.16;nan;102167.41;5013199;28;20026;-46
2021/06/16 06:35:27;;;;;;;3.75;1.38;;;;;;;18.36;nan;102164.78;5011372;28;20045;-48
2021/06/16 06:37:53;;;;;;;5.65;1.90;;;;;;;18.51;nan;102160.47;5010634;28;20021;-48
2021/06/16 06:40:19;;;;;;;4.00;1.40;;;;;;;18.63;nan;102167.31;5012687;28;20503;-47
2021/06/16 06:42:44;;;;;;;4.60;1.63;;;;;;;18.68;nan;102166.53;5013135;28;20048;-46
2021/06/16 06:45:10;;;;;;;3.97;1.60;;;;;;;18.85;nan;102167.13;5011955;28;20102;-46
2021/06/16 06:47:35;;;;;;;2.08;1.40;;;;;;;18.99;nan;102160.03;5009909;28;20030;-48
2021/06/16 06:50:01;;;;;;;4.50;1.50;;;;;;;19.12;nan;102163.31;5011867;28;20021;-49
2021/06/16 06:52:26;;;;;;;5.97;1.77;;;;;;;19.26;nan;102162.53;5009306;28;20320;-49
2021/06/16 06:54:52;;;;;;;5.13;1.50;;;;;;;19.42;nan;102163.34;5007996;28;20511;-49
2021/06/16 06:57:17;;;;;;;3.35;1.40;;;;;;;19.59;nan;102157.63;5009583;28;20086;-49
2021/06/16 06:59:43;;;;;;;2.70;1.50;;;;;;;19.68;nan;102157.88;5015443;28;20037;-49
2021/06/16 07:02:08;;;;;;;4.68;1.73;;;;;;;19.82;nan;102153.50;5013441;28;20502;-49
2021/06/16 07:04:34;;;;;;;5.78;1.73;;;;;;;19.95;nan;102147.50;5009317;28;20057;-48
2021/06/16 07:06:59;;;;;;;3.60;1.38;;;;;;;20.03;nan;102141.47;5011789;28;20114;-47
2021/06/16 07:09:25;;;;;;;2.67;1.50;;;;;;;20.16;nan;102138.16;5010059;28;20449;-46
2021/06/16 07:11:51;;;;;;;3.13;1.33;;;;;;;20.29;nan;102136.75;5010113;28;20072;-47
2021/06/16 07:14:17;;;;;;;3.67;1.90;;;;;;;20.34;nan;102134.00;5010322;28;20060;-49
2021/06/16 07:16:43;;;;;;;2.72;1.50;;;;;;;20.52;nan;102138.00;5012854;28;20060;-46
2021/06/16 07:19:09;;;;;;;2.20;1.42;;;;;;;20.65;nan;102131.94;5010401;28;20032;-47
2021/06/16 07:21:35;;;;;;;3.70;1.25;;;;;;;20.81;nan;102130.72;5012380;28;20038;-47
2021/06/16 07:24:00;;;;;;;3.58;1.08;;;;;;;20.96;nan;102129.78;5010959;28;20053;-48
2021/06/16 07:26:26;;;;;;;2.22;1.40;;;;;;;20.99;nan;102131.13;5014577;28;20026;-49
2021/06/16 07:28:51;;;;;;;2.15;1.23;;;;;;;20.95;nan;102133.63;5019782;28;20037;-46
2021/06/16 07:31:17;;;;;;;1.63;0.90;;;;;;;21.14;nan;102128.28;5016522;28;20194;-46
2021/06/16 07:33:42;;;;;;;3.88;1.40;;;;;;;21.22;nan;102130.41;5010960;28;20022;-46
2021/06/16 07:36:08;;;;;;;2.47;0.90;;;;;;;21.42;nan;102124.81;5012985;28;20042;-50
2021/06/16 07:38:33;;;;;;;3.50;1.00;;;;;;;21.52;nan;102133.97;5013850;28;20548;-46
2021/06/16 07:40:59;;;;;;;3.88;1.30;;;;;;;21.68;nan;102125.34;5014102;28;20103;-48
2021/06/16 07:43:25;;;;;;;8.40;1.23;;;;;;;21.82;nan;102122.75;5014461;28;20324;-46
2021/06/16 07:45:50;;;;;;;1.65;0.80;;;;;;;21.95;nan;102129.41;5019818;28;20045;-47
2021/06/16 07:48:16;;;;;;;2.15;0.82;;;;;;;22.01;nan;102129.06;4994305;28;20040;-47
2021/06/16 07:50:42;;;;;;;4.13;1.13;;;;;;;22.09;nan;102130.38;5014183;28;20080;-50
2021/06/16 07:53:08;;;;;;;2.53;1.00;;;;;;;21.89;nan;102125.91;5015660;28;20032;-46
2021/06/16 07:55:35;;;;;;;4.63;1.17;;;;;;;21.95;nan;102124.78;5014743;28;20037;-47
2021/06/16 07:58:02;;;;;;;2.65;1.20;;;;;;;21.98;nan;102129.66;5017471;28;20112;-49
2021/06/16 08:00:28;;;;;;;1.83;1.00;;;;;;;22.18;nan;102128.59;5017487;28;20490;-47
2021/06/16 08:02:53;;;;;;;2.63;1.17;;;;;;;22.40;nan;102125.31;5023881;28;20032;-47
2021/06/16 08:05:19;;;;;;;3.63;1.27;;;;;;;22.60;nan;102119.53;5014285;28;20148;-46
2021/06/16 08:07:44;;;;;;;2.15;0.80;;;;;;;22.74;nan;102121.53;5018644;28;20025;-47
2021/06/16 08:10:11;;;;;;;6.03;1.45;;;;;;;22.99;nan;102115.72;5008763;28;20080;-48
2021/06/16 08:12:37;;;;;;;2.88;0.93;;;;;;;23.02;nan;102114.31;5010855;28;20026;-48
2021/06/16 08:15:05;;;;;;;2.60;1.00;;;;;;;23.09;nan;102110.06;5013447;28;20032;-47
2021/06/16 08:17:30;;;;;;;2.42;1.35;;;;;;;23.15;nan;102114.31;5011052;28;20026;-46
2021/06/16 08:19:56;;;;;;;3.90;1.10;;;;;;;23.33;nan;102109.91;5011623;28;20029;-49
2021/06/16 08:22:21;;;;;;;7.18;1.50;;;;;;;23.48;nan;102111.56;5010651;28;20022;-47
2021/06/16 08:24:47;;;;;;;3.75;1.10;;;;;;;23.68;nan;102111.19;5010367;28;20036;-49
2021/06/16 08:27:12;;;;;;;2.13;0.88;;;;;;;23.81;nan;102109.59;5013142;28;20025;-48
2021/06/16 08:29:38;;;;;;;4.93;1.52;;;;;;;23.88;nan;102104.53;5011493;28;20025;-46
2021/06/16 08:32:05;;;;;;;2.15;1.10;;;;;;;23.69;nan;102107.34;5010087;28;20116;-47
2021/06/16 08:34:31;;;;;;;3.30;1.20;;;;;;;23.54;nan;102107.63;5001354;28;20045;-46
2021/06/16 08:36:56;;;;;;;2.60;1.17;;;;;;;23.68;nan;102105.72;5017873;28;20055;-47
2021/06/16 08:39:23;;;;;;;3.63;1.10;;;;;;;23.97;nan;102096.41;5018280;28;20036;-46
2021/06/16 08:41:50;;;;;;;2.75;1.27;;;;;;;23.95;nan;102104.09;5020464;28;20033;-47
2021/06/16 08:44:17;;;;;;;5.47;1.45;;;;;;;24.13;nan;102108.66;5012484;28;20029;-50
2021/06/16 08:46:42;;;;;;;5.30;1.10;;;;;;;24.38;nan;102107.31;5011010;28;20112;-48
2021/06/16 08:49:08;;;;;;;3.08;1.27;;;;;;;24.41;nan;102102.00;5006890;28;20033;-48
2021/06/16 08:51:35;;;;;;;2.15;1.00;;;;;;;24.51;nan;102105.66;5009295;28;20384;-48
2021/06/16 08:54:02;;;;;;;13.93;1.60;;;;;;;24.66;nan;102108.03;5007401;28;20032;-47
2021/06/16 08:56:28;;;;;;;10.30;1.20;;;;;;;24.86;nan;102102.06;5015233;28;20088;-47
2021/06/16 08:58:54;;;;;;;4.03;1.10;;;;;;;24.90;nan;102097.56;5011623;28;20062;-48
2021/06/16 09:01:21;;;;;;;5.15;1.17;;;;;;;24.91;nan;102090.97;5010611;28;20040;-47
2021/06/16 09:03:47;;;;;;;3.25;1.38;;;;;;;24.82;nan;102094.78;5011914;28;20025;-48
2021/06/16 09:06:15;;;;;;;4.75;1.23;;;;;;;24.99;nan;102095.72;5017166;28;20036;-47
2021/06/16 09:08:57;;;;;;;4.18;1.10;;;;;;;25.12;nan;102093.19;5011725;28;20034;-46
2021/06/16 09:11:25;;;;;;;2.22;0.82;;;;;;;25.28;nan;102099.91;5019652;28;20029;-50
2021/06/16 09:13:51;;;;;;;1.88;0.90;;;;;;;25.26;nan;102099.41;5013607;28;20034;-47
2021/06/16 09:16:43;;;;;;;4.72;1.27;;;;;;;25.32;nan;102095.44;5010862;28;20551;-47
2021/06/16 09:19:23;;;;;;;5.82;1.70;;;;;;;25.38;nan;102096.91;5009867;28;20124;-47
2021/06/16 09:21:58;;;;;;;3.60;1.60;;;;;;;25.49;nan;102092.75;5009891;28;20510;-48
2021/06/16 09:24:24;;;;;;;4.22;1.15;;;;;;;25.66;nan;102091.19;5011778;28;20025;-49
2021/06/16 09:26:50;;;;;;;3.45;1.38;;;;;;;25.77;nan;102089.81;5002345;28;20026;-48
2021/06/16 09:29:27;;;;;;;2.75;1.30;;;;;;;25.96;nan;102084.06;5014041;28;20031;-48
2021/06/16 09:32:04;;;;;;;5.15;1.50;;;;;;;25.30;nan;102089.44;5012219;28;20037;-47
2021/06/16 09:34:31;;;;;;;5.72;1.35;;;;;;;25.15;nan;102087.91;5009832;28;20266;-47
2021/06/16 09:37:03;;;;;;;2.90;1.10;;;;;;;25.24;nan;102086.03;5012861;28;20025;-47
2021/06/16 09:39:30;;;;;;;3.10;1.73;;;;;;;25.34;nan;102084.94;5010387;28;20080;-47
2021/06/16 09:42:15;;;;;;;2.40;1.25;;;;;;;25.55;nan;102080.53;5009681;28;20273;-46
2021/06/16 09:44:46;;;;;;;5.10;1.23;;;;;;;25.04;nan;102081.06;5008227;28;20073;-48
2021/06/16 09:47:23;;;;;;;3.17;1.55;;;;;;;23.93;nan;102078.97;5011106;28;20428;-47
2021/06/16 09:49:56;;;;;;;3.88;1.65;;;;;;;23.64;nan;102077.34;5009680;28;20495;-46
2021/06/16 09:52:39;;;;;;;5.53;1.48;;;;;;;24.05;nan;102076.50;5015092;28;20061;-47
2021/06/16 09:55:22;;;;;;;3.05;1.70;;;;;;;24.71;nan;102077.75;5014111;28;20041;-47
2021/06/16 09:58:06;;;;;;;3.30;1.23;;;;;;;24.97;nan;102070.53;5009258;28;20026;-46
2021/06/16 10:00:43;;;;;;;3.88;1.10;;;;;;;25.17;nan;102065.66;5011189;28;20029;-46
2021/06/16 10:03:18;;;;;;;4.00;1.38;;;;;;;25.65;nan;102064.88;5012322;28;20102;-48
2021/06/16 10:06:04;;;;;;;5.70;1.75;;;;;;;25.96;nan;102062.88;5010161;28;20029;-47
2021/06/16 10:08:31;;;;;;;2.47;1.30;;;;;;;26.08;nan;102057.59;5010148;28;20028;-47
2021/06/16 10:10:57;;;;;;;3.42;1.13;;;;;;;26.24;nan;102049.69;5009194;28;20124;-49
2021/06/16 10:13:27;;;;;;;3.78;1.30;;;;;;;26.55;nan;102052.28;5054631;22;20037;-87
2021/06/16 10:15:57;;;;;;;1.65;1.50;;;;;;;26.79;nan;102047.09;5019427;28;20127;-87
2021/06/16 10:18:23;;;;;;;4.88;1.50;;;;;;;26.79;nan;102041.59;5017147;28;20028;-87
2021/06/16 10:20:51;;;;;;;4.57;1.30;;;;;;;26.83;nan;102044.47;5016807;28;20017;-87
2021/06/16 10:23:17;;;;;;;3.90;1.10;;;;;;;26.60;nan;102049.38;5014080;28;20022;-87
2021/06/16 10:25:43;;;;;;;2.85;1.20;;;;;;;26.47;nan;102045.66;5039584;28;20033;-86
2021/06/16 10:31:34;;;;;;;2.33;1.02;;;;;;;25.80;nan;102037.81;4951643;28;20046;-88
2021/06/16 10:34:11;;;;;;;3.30;1.35;;;;;;;25.50;nan;102042.25;4944132;28;20037;-89
2021/06/16 10:36:36;;;;;;;4.45;1.38;;;;;;;25.58;nan;102041.47;5029153;22;20135;-48
2021/06/16 10:39:03;;;;;;;4.00;1.30;;;;;;;25.71;nan;102028.78;5039454;28;20084;-47
2021/06/16 10:41:40;;;;;;;7.05;1.00;;;;;;;25.89;nan;102032.38;5035582;28;20378;-47
2021/06/16 10:44:32;;;;;;;5.72;1.38;;;;;;;26.35;nan;102030.94;5037663;28;20152;-47
2021/06/16 10:47:06;;;;;;;2.90;1.17;;;;;;;26.67;nan;102044.19;5036424;28;20490;-48
2021/06/16 10:49:46;;;;;;;3.30;1.23;;;;;;;26.93;nan;102032.31;5034801;28;20039;-47
2021/06/16 10:55:02;;;;;;;4.00;1.30;;;;;;;27.10;nan;102029.53;5047283;28;20045;-52
2021/06/16 10:57:28;;;;;;;2.92;0.90;;;;;;;27.13;nan;102026.16;5060736;28;20067;-50
2021/06/16 10:59:57;;;;;;;4.18;1.35;;;;;;;27.18;nan;102020.47;5038440;28;20151;-51
2021/06/16 11:02:25;;;;;;;2.90;0.95;;;;;;;27.35;nan;102028.63;5040545;28;20021;-52
2021/06/16 11:04:51;;;;;;;7.40;1.52;;;;;;;27.47;nan;102018.84;5039603;28;20040;-51
2021/06/16 11:07:27;;;;;;;1.73;1.20;;;;;;;27.46;nan;102025.50;5040435;28;20392;-48
2021/06/16 11:09:54;;;;;;;4.93;1.40;;;;;;;27.27;nan;102012.16;5033558;28;20563;-50
2021/06/16 11:12:39;;;;;;;3.60;1.30;;;;;;;27.44;nan;102012.06;5039421;28;21571;-51
2021/06/16 11:15:06;;;;;;;3.97;1.00;;;;;;;27.56;nan;102001.16;5039071;28;20044;-50
2021/06/16 11:17:35;;;;;;;3.50;1.17;;;;;;;27.57;nan;101997.25;5038586;28;20056;-54
2021/06/16 11:20:26;;;;;;;3.30;1.08;;;;;;;27.79;nan;102000.88;5041495;28;20083;-52
2021/06/16 11:22:53;;;;;;;3.22;1.10;;;;;;;28.05;nan;101987.72;5037891;28;20021;-48
2021/06/16 11:25:20;;;;;;;4.32;1.20;;;;;;;28.19;nan;101992.97;5040935;28;20036;-51
2021/06/16 11:27:51;;;;;;;2.97;1.23;;;;;;;28.37;nan;101985.34;5040686;28;20056;-52
2021/06/16 11:30:53;;;;;;;1.83;1.20;;;;;;;28.49;nan;101980.69;5038585;28;20036;-51
2021/06/16 11:33:19;;;;;;;3.75;1.42;;;;;;;28.56;nan;101978.19;5040001;28;20589;-53
2021/06/16 11:36:00;;;;;;;3.28;1.35;;;;;;;28.07;nan;101976.38;5039537;28;20090;-51
2021/06/16 11:38:34;;;;;;;2.55;1.15;;;;;;;28.10;nan;101976.50;5041342;28;20025;-48
2021/06/16 11:41:03;;;;;;;2.85;1.10;;;;;;;28.31;nan;101983.94;5042050;28;20032;-52
2021/06/16 11:43:36;;;;;;;7.25;1.45;;;;;;;28.35;nan;101985.69;5040148;28;20566;-52
2021/06/16 11:46:21;;;;;;;3.05;1.20;;;;;;;28.61;nan;101970.84;5035304;28;20869;-49
2021/06/16 11:48:48;;;;;;;;;;;;;;;28.58;nan;101972.34;5037474;28;20581;-49
2021/06/16 11:51:32;;;;;;;4.00;1.08;;;;;;;28.92;nan;101971.16;5039146;28;19924;-53
2021/06/16 11:54:22;;;;;;;3.47;1.20;;;;;;;28.85;nan;101968.94;5041356;28;20111;-50